Surfer 226 — FNNH — position and weather

sailwx.info

Track history (hours):
 
Tides and Currents Weather Stations Pressure Air Temp Water Temp Dewpoint Dewpoint Depression Visibility Wind Speed Wind Dir Waves Ship Positions

Surfer 226

Last reported at 2017-Dec-15 22:25 UTC. Time now 2018-Feb-23 04:38 UTC.
Position S 04°46' E 011°51'.
Warning: this ship's position is months out of date.

Length 22 m; draft 1 m.

MMSI: 635016400.

Date/timePositionNaut miles runAvg speedWind from/ knotsBaromVisibWave heightAir tempDewpointWater temp
2017-Dec-15 22:25S 04°46' E 011°51'0 0.0
2017-Dec-15 20:27S 04°46' E 011°51'  
2017-Dec-07 15:32S 05°11' E 011°29'125.8
2017-Dec-07 15:30S 05°11' E 011°28'815.5
2017-Dec-07 15:00S 05°17' E 011°23'1 2.7
2017-Dec-07 14:30S 05°17' E 011°24'0 0.0
2017-Dec-07 14:00S 05°17' E 011°24'0 0.0
2017-Dec-07 13:30S 05°17' E 011°24'815.5
2017-Dec-07 13:00S 05°17' E 011°32'612.8
2017-Dec-07 12:30S 05°17' E 011°26'1 2.5
2017-Dec-07 12:00S 05°17' E 011°24'0 0.0
2017-Dec-07 11:30S 05°17' E 011°24'0 0.0
2017-Dec-07 10:57S 05°17' E 011°24'0 0.0
2017-Dec-07 10:30S 05°17' E 011°24'0 0.0
2017-Dec-07 10:00S 05°17' E 011°24'0 0.0
2017-Dec-07 09:30S 05°17' E 011°24'0 0.0
2017-Dec-07 09:00S 05°17' E 011°24'918.4
2017-Dec-07 08:30S 05°16' E 011°34'612.6
2017-Dec-07 08:00S 05°17' E 011°27'4 8.6
2017-Dec-07 07:30S 05°17' E 011°23'1019.1
2017-Dec-07 06:58S 05°09' E 011°29'  
Track history (hours):
 
Tides and Currents Weather Stations Pressure Air Temp Water Temp Dewpoint Dewpoint Depression Visibility Wind Speed Wind Dir Waves Ship Positions

Surfer 226

Last reported at 2017-Dec-15 22:25 UTC. Time now 2018-Feb-23 04:38 UTC.
Position S 04°46' E 011°51'.
Warning: this ship's position is months out of date.

Length 22 m; draft 1 m.

MMSI: 635016400.

Date/timePositionNaut miles runAvg speedWind from/ knotsBaromVisibWave heightAir tempDewpointWater temp
2017-Dec-15 22:25S 04°46' E 011°51'0 0.0
2017-Dec-15 20:27S 04°46' E 011°51'  
2017-Dec-07 15:32S 05°11' E 011°29'125.8
2017-Dec-07 15:30S 05°11' E 011°28'815.5
2017-Dec-07 15:00S 05°17' E 011°23'1 2.7
2017-Dec-07 14:30S 05°17' E 011°24'0 0.0
2017-Dec-07 14:00S 05°17' E 011°24'0 0.0
2017-Dec-07 13:30S 05°17' E 011°24'815.5
2017-Dec-07 13:00S 05°17' E 011°32'612.8
2017-Dec-07 12:30S 05°17' E 011°26'1 2.5
2017-Dec-07 12:00S 05°17' E 011°24'0 0.0
2017-Dec-07 11:30S 05°17' E 011°24'0 0.0
2017-Dec-07 10:57S 05°17' E 011°24'0 0.0
2017-Dec-07 10:30S 05°17' E 011°24'0 0.0
2017-Dec-07 10:00S 05°17' E 011°24'0 0.0
2017-Dec-07 09:30S 05°17' E 011°24'0 0.0
2017-Dec-07 09:00S 05°17' E 011°24'918.4
2017-Dec-07 08:30S 05°16' E 011°34'612.6
2017-Dec-07 08:00S 05°17' E 011°27'4 8.6
2017-Dec-07 07:30S 05°17' E 011°23'1019.1
2017-Dec-07 06:58S 05°09' E 011°29'  

Dump ship's entire track history